Current Weather

Granbury Rgnl

Granbury, Texas (KGDJ)

Report from: Friday, February 23, 2024 7:35 PM UTC
Current time: Friday, February 23, 2024 7:52 PM UTC

Nearby weather – Weather history – Daily summaries
Weather forecast

Temperature20.2°C (68.4°F)
Dew point1.3°C (34.3°F)
Winds 7 kts (3.6 m/s, 8.1 mph) North (360°)
Wind gusts 15 kts (7.7 m/s, 17.3 mph)
Visibility10 mi. (16.1 km)
Clouds Sky clear
Altimeter30.12 in.Hg (1020 mB)
Relative humidity28 %
Density altitude486 ft. (148 m)
Remarks Fully automated report
Automated weather observing station with precipitation discriminator
Flight conditions Visual Meteorological Conditions
Raw dataKGDJ 231935Z AUTO 36007G15KT 10SM CLR 20/01 A3012 RMK AO2 T02020013
An error has occurred. This application may no longer respond until reloaded. Reload 🗙